Time;durP1;ratioP1;P1;durP2;ratioP2;P2;SDS_P1;SDS_P2;PMS_P1;PMS_P2;Temp;Humidity;BMP_temperature;BMP_pressure;BME280_temperature;BME280_humidity;BME280_pressure;Samples;Min_cycle;Max_cycle;Signal;HPM_P1;HPM_P2
2023/09/07 00:01:37;;;;;;;8.23;7.10;;;;;;;20.19;100.00;101807.59;5174099;28;20109;-73
2023/09/07 00:04:08;;;;;;;7.47;6.47;;;;;;;20.34;100.00;101820.53;5192653;28;20041;-73
2023/09/07 00:06:43;;;;;;;10.33;7.23;;;;;;;20.25;100.00;101811.53;5179688;28;20126;-73
2023/09/07 00:09:18;;;;;;;9.90;7.13;;;;;;;19.97;100.00;101804.09;5172637;28;20658;-73
2023/09/07 00:11:49;;;;;;;9.17;7.83;;;;;;;20.16;100.00;101814.00;5172117;28;20038;-71
2023/09/07 00:14:20;;;;;;;8.57;7.13;;;;;;;20.10;100.00;101808.38;5171823;28;20089;-73
2023/09/07 00:16:52;;;;;;;11.07;7.83;;;;;;;20.06;100.00;101811.31;5172949;28;20569;-74
2023/09/07 00:19:23;;;;;;;9.73;7.67;;;;;;;20.15;100.00;101801.72;5189034;28;20129;-73
2023/09/07 00:21:54;;;;;;;8.70;6.90;;;;;;;20.17;100.00;101815.72;5193281;28;20039;-73
2023/09/07 00:24:26;;;;;;;9.23;7.67;;;;;;;20.02;100.00;101807.19;5193307;28;20022;-73
2023/09/07 00:26:58;;;;;;;10.80;7.57;;;;;;;19.89;100.00;101809.22;5193314;28;20033;-73
2023/09/07 00:29:29;;;;;;;10.13;7.93;;;;;;;19.84;100.00;101806.97;5190580;28;20121;-73
2023/09/07 00:32:01;;;;;;;8.93;6.97;;;;;;;19.97;100.00;101806.75;5175553;28;20129;-73
2023/09/07 00:34:33;;;;;;;9.03;7.57;;;;;;;19.68;100.00;101794.13;5181303;28;20026;-73
2023/09/07 00:37:04;;;;;;;10.40;7.93;;;;;;;19.81;100.00;101792.09;5190925;28;20089;-73
2023/09/07 00:39:36;;;;;;;14.67;9.57;;;;;;;19.91;100.00;101789.53;5171017;28;20589;-74
2023/09/07 00:42:07;;;;;;;10.73;9.53;;;;;;;19.76;100.00;101796.97;5171363;28;20122;-72
2023/09/07 00:44:38;;;;;;;9.67;8.17;;;;;;;19.83;100.00;101789.31;5171267;28;20033;-73
2023/09/07 00:47:10;;;;;;;11.00;8.73;;;;;;;19.98;100.00;101796.97;5172124;28;20038;-73
2023/09/07 00:49:43;;;;;;;11.33;9.00;;;;;;;19.80;100.00;101787.75;5178139;28;20045;-72
2023/09/07 00:52:14;;;;;;;11.60;10.03;;;;;;;19.69;100.00;101795.78;5192273;28;20026;-73
2023/09/07 00:54:46;;;;;;;11.40;8.77;;;;;;;19.65;100.00;101799.69;5192016;28;20441;-73
2023/09/07 00:57:17;;;;;;;13.33;9.60;;;;;;;19.74;100.00;101801.56;5191000;28;20505;-73
2023/09/07 00:59:48;;;;;;;12.37;10.37;;;;;;;19.62;100.00;101807.94;5192281;28;20026;-74
2023/09/07 01:02:20;;;;;;;11.67;10.33;;;;;;;19.69;100.00;101798.44;5191883;28;20034;-74
2023/09/07 01:04:52;;;;;;;11.13;10.07;;;;;;;19.74;100.00;101796.25;5227368;22;20620;-74
2023/09/07 01:07:30;;;;;;;11.70;10.27;;;;;;;19.54;100.00;101801.44;5189955;28;20392;-74
2023/09/07 01:10:02;;;;;;;11.37;10.13;;;;;;;19.48;100.00;101798.44;5189189;28;20081;-74
2023/09/07 01:12:33;;;;;;;12.70;10.27;;;;;;;19.64;100.00;101798.00;5178389;28;20118;-74
2023/09/07 01:15:05;;;;;;;20.00;9.97;;;;;;;19.66;100.00;101804.03;5181003;28;20311;-74
2023/09/07 01:17:37;;;;;;;15.47;9.93;;;;;;;19.41;100.00;101795.47;5188893;28;20042;-73
2023/09/07 01:20:10;;;;;;;10.60;9.50;;;;;;;19.34;100.00;101793.28;5174140;28;20030;-74
2023/09/07 01:22:41;;;;;;;11.37;10.17;;;;;;;19.27;100.00;101778.84;5177394;28;20022;-74
2023/09/07 01:25:13;;;;;;;11.13;8.63;;;;;;;19.55;100.00;101789.81;5204688;28;20083;-72
2023/09/07 01:27:45;;;;;;;11.37;7.97;;;;;;;19.49;100.00;101795.66;5206122;28;20109;-72
2023/09/07 01:30:17;;;;;;;9.33;8.43;;;;;;;19.31;100.00;101787.38;5189395;28;20217;-72
2023/09/07 01:32:49;;;;;;;12.17;8.73;;;;;;;19.14;100.00;101786.13;5189684;28;20462;-73
2023/09/07 01:35:22;;;;;;;10.77;8.80;;;;;;;19.29;100.00;101790.19;5189389;28;20041;-73
2023/09/07 01:37:53;;;;;;;12.57;8.27;;;;;;;19.32;100.00;101794.41;5187959;28;20384;-74
2023/09/07 01:40:25;;;;;;;10.27;8.83;;;;;;;19.15;100.00;101787.84;5196194;28;20034;-72
2023/09/07 01:42:56;;;;;;;9.67;8.63;;;;;;;19.23;100.00;101782.72;5203259;28;20085;-73
2023/09/07 01:45:28;;;;;;;9.33;8.43;;;;;;;19.24;100.00;101784.41;5187946;28;20080;-72
2023/09/07 01:47:59;;;;;;;14.73;9.87;;;;;;;19.01;100.00;101786.28;5188261;28;20045;-72
2023/09/07 01:50:31;;;;;;;14.87;10.67;;;;;;;19.11;100.00;101776.63;5188244;28;20400;-73
2023/09/07 01:53:05;;;;;;;10.93;9.77;;;;;;;19.18;100.00;101771.66;5187551;28;20038;-74
2023/09/07 01:55:36;;;;;;;;;;;;;;;19.86;100.00;101780.25;5189376;28;20117;-73
2023/09/07 01:58:08;;;;;;;12.87;10.07;;;;;;;19.00;100.00;101777.47;5187634;28;20008;-74
2023/09/07 02:00:39;;;;;;;11.10;9.83;;;;;;;19.12;100.00;101780.09;5189553;28;20023;-72
2023/09/07 02:03:11;;;;;;;15.67;11.80;;;;;;;19.02;100.00;101788.81;5189183;28;20026;-72
2023/09/07 02:05:45;;;;;;;12.97;10.63;;;;;;;19.02;100.00;101780.84;5188775;28;20055;-73
2023/09/07 02:08:16;;;;;;;11.73;10.23;;;;;;;18.91;100.00;101781.69;5184587;28;20061;-73
2023/09/07 02:10:48;;;;;;;12.00;10.80;;;;;;;18.89;100.00;101780.13;5203503;28;20472;-74
2023/09/07 02:13:19;;;;;;;15.97;11.30;;;;;;;19.14;100.00;101775.50;5186336;28;20030;-72
2023/09/07 02:15:50;;;;;;;13.67;12.13;;;;;;;19.13;100.00;101765.88;5184690;28;20037;-73
2023/09/07 02:18:21;;;;;;;12.67;11.37;;;;;;;19.00;100.00;101774.81;5205034;28;20135;-73
2023/09/07 02:20:53;;;;;;;14.63;11.37;;;;;;;18.96;100.00;101770.69;5205260;28;20030;-72
2023/09/07 02:23:24;;;;;;;13.40;12.00;;;;;;;19.02;100.00;101772.03;5187001;28;20501;-73
2023/09/07 02:25:55;;;;;;;17.93;12.37;;;;;;;18.83;100.00;101768.22;5188637;28;20130;-73
2023/09/07 02:28:27;;;;;;;14.60;12.90;;;;;;;18.84;100.00;101769.88;5185972;28;20030;-73
2023/09/07 02:31:05;;;;;;;16.73;12.83;;;;;;;19.08;100.00;101772.34;5189265;28;20109;-72
2023/09/07 02:33:37;;;;;;;13.40;12.03;;;;;;;18.88;100.00;101781.09;5187867;28;20240;-73
2023/09/07 02:36:08;;;;;;;13.43;11.97;;;;;;;18.84;100.00;101772.53;5171194;28;20405;-73
2023/09/07 02:38:39;;;;;;;14.43;11.60;;;;;;;18.76;100.00;101778.47;5168515;28;20031;-73
2023/09/07 02:41:11;;;;;;;13.27;11.27;;;;;;;18.70;100.00;101763.88;5174132;28;20410;-73
2023/09/07 02:43:42;;;;;;;16.87;12.77;;;;;;;18.54;100.00;101774.88;5172186;28;20022;-73
2023/09/07 02:46:13;;;;;;;14.83;12.00;;;;;;;18.54;100.00;101772.22;5200322;28;20022;-73
2023/09/07 02:48:45;;;;;;;14.93;13.17;;;;;;;18.38;100.00;101773.44;5203499;28;20492;-72
2023/09/07 02:51:17;;;;;;;12.97;11.67;;;;;;;18.73;100.00;101773.41;5208460;28;20583;-74
2023/09/07 02:53:49;;;;;;;14.07;12.77;;;;;;;18.57;100.00;101766.66;5208962;28;20026;-74
2023/09/07 02:56:20;;;;;;;14.40;12.03;;;;;;;18.52;100.00;101776.81;5207365;28;20026;-73
2023/09/07 02:58:51;;;;;;;14.20;12.70;;;;;;;18.48;100.00;101754.16;5208072;28;20464;-73
2023/09/07 03:01:23;;;;;;;12.50;11.30;;;;;;;18.54;100.00;101758.97;5204570;28;20030;-72
2023/09/07 03:03:54;;;;;;;14.23;12.23;;;;;;;18.49;100.00;101766.44;5188316;28;20030;-74
2023/09/07 03:06:25;;;;;;;15.73;11.23;;;;;;;18.50;100.00;101760.19;5187941;28;20026;-71
2023/09/07 03:08:57;;;;;;;13.50;11.10;;;;;;;18.71;100.00;101754.13;5186804;28;20022;-74
2023/09/07 03:11:33;;;;;;;13.87;11.80;;;;;;;18.58;100.00;101759.56;5188054;28;20093;-74
2023/09/07 03:14:05;;;;;;;12.97;11.67;;;;;;;18.55;100.00;101765.97;5178013;28;20034;-74
2023/09/07 03:16:38;;;;;;;13.03;11.73;;;;;;;18.60;100.00;101766.44;5169539;28;20163;-73
2023/09/07 03:19:09;;;;;;;14.43;11.80;;;;;;;18.43;100.00;101773.06;5169335;28;20146;-74
2023/09/07 03:21:41;;;;;;;15.83;11.20;;;;;;;18.61;100.00;101770.78;5186571;28;20281;-73
2023/09/07 03:24:12;;;;;;;13.77;12.37;;;;;;;18.55;100.00;101771.28;5184855;28;20503;-74
2023/09/07 03:26:44;;;;;;;12.83;11.17;;;;;;;18.45;100.00;101765.00;5181539;28;20110;-72
2023/09/07 03:29:15;;;;;;;13.33;11.70;;;;;;;18.57;100.00;101758.72;5166951;28;20389;-72
2023/09/07 03:31:46;;;;;;;12.87;11.50;;;;;;;18.43;100.00;101756.34;5177372;28;20030;-72
2023/09/07 03:34:17;;;;;;;12.27;11.07;;;;;;;18.37;100.00;101762.97;5186455;28;20141;-73
2023/09/07 03:36:49;;;;;;;12.60;10.90;;;;;;;18.61;100.00;101764.63;5185963;28;20490;-73
2023/09/07 03:39:23;;;;;;;13.27;11.10;;;;;;;18.66;100.00;101773.06;5212192;28;20451;-73
2023/09/07 03:41:54;;;;;;;11.50;10.32;;;;;;;18.63;100.00;101781.25;5201183;28;20038;-71
2023/09/07 03:44:25;;;;;;;15.00;10.47;;;;;;;18.69;100.00;101787.91;5189681;28;20024;-71
2023/09/07 03:46:56;;;;;;;10.90;9.80;;;;;;;18.38;100.00;101773.44;5192210;28;20072;-72
2023/09/07 03:49:28;;;;;;;13.17;9.60;;;;;;;18.33;100.00;101777.41;5191799;28;20278;-72
2023/09/07 03:51:59;;;;;;;14.57;9.77;;;;;;;18.18;100.00;101779.47;5191267;28;20018;-72
2023/09/07 03:54:31;;;;;;;12.27;11.00;;;;;;;18.30;100.00;101778.50;5186864;28;20540;-73
2023/09/07 03:57:03;;;;;;;11.57;10.40;;;;;;;18.28;100.00;101772.47;5204258;28;20018;-73
2023/09/07 03:59:34;;;;;;;11.00;9.87;;;;;;;18.21;100.00;101780.06;5192859;28;20056;-71
2023/09/07 04:02:05;;;;;;;12.13;10.87;;;;;;;18.11;100.00;101771.97;5206342;28;20139;-73
2023/09/07 04:04:37;;;;;;;11.83;10.57;;;;;;;18.22;100.00;101780.91;5211236;28;20038;-73
2023/09/07 04:07:08;;;;;;;11.63;10.37;;;;;;;18.14;100.00;101777.06;5211119;28;20120;-72
2023/09/07 04:09:39;;;;;;;15.77;10.63;;;;;;;18.08;100.00;101779.31;5211418;28;20024;-73
2023/09/07 04:12:11;;;;;;;11.97;10.20;;;;;;;18.03;100.00;101771.69;5196821;28;20416;-72
2023/09/07 04:14:44;;;;;;;13.30;11.23;;;;;;;18.09;100.00;101776.53;5197541;28;20014;-72
2023/09/07 04:17:15;;;;;;;11.50;9.80;;;;;;;18.05;100.00;101772.41;5188781;28;20560;-72
2023/09/07 04:19:46;;;;;;;13.57;11.07;;;;;;;18.05;100.00;101769.78;5190291;28;20033;-73
2023/09/07 04:22:18;;;;;;;14.23;10.10;;;;;;;17.98;100.00;101774.72;5190822;28;20023;-73
2023/09/07 04:24:49;;;;;;;15.53;11.20;;;;;;;17.96;100.00;101778.44;5190724;28;20540;-72
2023/09/07 04:27:20;;;;;;;11.77;10.63;;;;;;;17.90;100.00;101775.31;5186027;28;20029;-73
2023/09/07 04:29:53;;;;;;;11.80;10.43;;;;;;;17.88;100.00;101779.88;5189768;28;20026;-72
2023/09/07 04:32:24;;;;;;;12.43;9.77;;;;;;;17.86;100.00;101781.78;5190224;28;20029;-71
2023/09/07 04:34:56;;;;;;;15.07;10.23;;;;;;;17.94;100.00;101783.03;5183275;28;20659;-73
2023/09/07 04:37:28;;;;;;;10.57;9.47;;;;;;;17.88;100.00;101786.97;5201792;28;20036;-73
2023/09/07 04:39:59;;;;;;;15.27;10.37;;;;;;;17.89;100.00;101786.03;5195293;28;20085;-73
2023/09/07 04:42:30;;;;;;;13.27;10.43;;;;;;;17.91;100.00;101789.38;5184596;28;20496;-73
2023/09/07 04:45:03;;;;;;;15.80;10.47;;;;;;;17.87;100.00;101783.47;5183585;28;20034;-75
2023/09/07 04:47:34;;;;;;;12.60;10.87;;;;;;;17.77;100.00;101771.88;5192522;28;20039;-74
2023/09/07 04:50:06;;;;;;;12.93;10.77;;;;;;;17.74;100.00;101777.44;5178856;28;20675;-74
2023/09/07 04:52:38;;;;;;;12.37;11.07;;;;;;;17.73;100.00;101781.06;5172671;28;20182;-77
2023/09/07 04:55:09;;;;;;;14.50;11.00;;;;;;;17.53;100.00;101775.44;5184484;28;20118;-75
2023/09/07 04:57:40;;;;;;;13.50;10.13;;;;;;;17.74;100.00;101780.06;5179967;28;20466;-74
2023/09/07 05:00:12;;;;;;;18.27;11.50;;;;;;;17.77;100.00;101785.13;5209159;28;20074;-75
2023/09/07 05:02:44;;;;;;;11.17;10.07;;;;;;;17.55;100.00;101781.47;5202400;28;20105;-72
2023/09/07 05:05:15;;;;;;;11.60;9.43;;;;;;;17.52;100.00;101782.53;5183588;28;20082;-74
2023/09/07 05:07:46;;;;;;;14.27;10.03;;;;;;;17.43;100.00;101777.94;5176715;28;20409;-74
2023/09/07 05:10:18;;;;;;;11.27;10.17;;;;;;;17.61;100.00;101786.28;5183070;28;20034;-74
2023/09/07 05:12:49;;;;;;;14.03;11.17;;;;;;;17.46;100.00;101798.03;5184413;28;20042;-74
2023/09/07 05:15:20;;;;;;;12.50;10.47;;;;;;;17.46;100.00;101787.44;5195794;28;20132;-75
2023/09/07 05:17:52;;;;;;;14.47;11.23;;;;;;;17.58;100.00;101802.44;5200755;28;20125;-73
2023/09/07 05:20:24;;;;;;;13.03;9.83;;;;;;;17.54;100.00;101801.81;5190012;28;20147;-72
2023/09/07 05:22:56;;;;;;;14.73;10.03;;;;;;;17.63;100.00;101796.78;5188105;28;20060;-75
2023/09/07 05:25:27;;;;;;;13.67;11.10;;;;;;;17.57;100.00;101803.41;5188547;28;20054;-74
2023/09/07 05:27:59;;;;;;;11.83;9.97;;;;;;;17.55;100.00;101800.00;5188169;28;20074;-74
2023/09/07 05:30:30;;;;;;;12.27;10.10;;;;;;;17.51;100.00;101796.75;5188707;28;20080;-73
2023/09/07 05:33:02;;;;;;;12.87;9.37;;;;;;;17.49;100.00;101797.84;5185832;28;20038;-73
2023/09/07 05:35:33;;;;;;;13.10;9.50;;;;;;;17.47;100.00;101803.22;5188806;28;20027;-74
2023/09/07 05:38:06;;;;;;;12.53;10.30;;;;;;;17.54;100.00;101808.94;5187265;28;20425;-74
2023/09/07 05:40:39;;;;;;;10.63;9.47;;;;;;;17.59;100.00;101800.63;5187310;28;20567;-73
2023/09/07 05:43:11;;;;;;;12.87;9.90;;;;;;;17.57;100.00;101800.75;5187557;28;20420;-72
2023/09/07 05:45:42;;;;;;;14.50;10.93;;;;;;;17.44;100.00;101799.97;5189311;28;20217;-72
2023/09/07 05:48:16;;;;;;;15.40;10.70;;;;;;;17.71;100.00;101809.47;5186836;28;20029;-73
2023/09/07 05:50:48;;;;;;;10.43;9.32;;;;;;;17.56;100.00;101796.38;5188068;28;20026;-73
2023/09/07 05:53:20;;;;;;;12.33;9.50;;;;;;;17.76;100.00;101802.00;5188330;28;20026;-73
2023/09/07 05:55:52;;;;;;;11.90;10.00;;;;;;;17.75;100.00;101810.94;5189312;28;20433;-73
2023/09/07 05:58:23;;;;;;;14.67;10.47;;;;;;;17.69;100.00;101811.38;5187794;28;20022;-72
2023/09/07 06:00:55;;;;;;;13.57;10.77;;;;;;;17.70;100.00;101813.91;5188482;28;20034;-73
2023/09/07 06:03:26;;;;;;;16.43;10.50;;;;;;;17.76;100.00;101813.47;5207723;28;20062;-73
2023/09/07 06:05:57;;;;;;;12.93;9.90;;;;;;;17.89;100.00;101823.94;5208829;28;20042;-73
2023/09/07 06:08:29;;;;;;;12.93;10.17;;;;;;;17.95;100.00;101816.50;5208308;28;20022;-73
2023/09/07 06:11:00;;;;;;;13.23;9.43;;;;;;;18.00;100.00;101827.59;5206366;28;20485;-73
2023/09/07 06:13:31;;;;;;;12.23;10.03;;;;;;;18.19;100.00;101828.84;5185336;28;20405;-73
2023/09/07 06:16:03;;;;;;;15.00;10.40;;;;;;;18.23;100.00;101830.31;5187095;28;20057;-70
2023/09/07 06:18:34;;;;;;;13.30;10.07;;;;;;;18.28;100.00;101833.47;5176417;28;20179;-72
2023/09/07 06:21:05;;;;;;;17.37;9.83;;;;;;;18.34;100.00;101830.34;5186581;28;20042;-73
2023/09/07 06:23:37;;;;;;;10.30;9.03;;;;;;;18.41;100.00;101833.38;5188321;28;20046;-73
2023/09/07 06:26:08;;;;;;;12.83;9.53;;;;;;;18.41;100.00;101832.50;5187952;28;20481;-73
2023/09/07 06:28:39;;;;;;;10.87;9.83;;;;;;;18.52;100.00;101834.34;5187295;28;20032;-72
2023/09/07 06:31:11;;;;;;;12.30;9.90;;;;;;;18.57;100.00;101837.47;5186508;28;20026;-72
2023/09/07 06:33:42;;;;;;;13.43;10.13;;;;;;;18.58;100.00;101832.03;5186839;28;20220;-72
2023/09/07 06:36:13;;;;;;;11.33;10.23;;;;;;;18.69;100.00;101840.97;5185590;28;20481;-72
2023/09/07 06:38:44;;;;;;;14.60;9.97;;;;;;;18.66;100.00;101843.84;5187242;28;20120;-73
2023/09/07 06:41:16;;;;;;;13.67;9.90;;;;;;;18.74;100.00;101849.41;5184996;28;21153;-72
2023/09/07 06:43:47;;;;;;;12.03;10.73;;;;;;;18.77;100.00;101849.16;5187050;28;20034;-73
2023/09/07 06:46:18;;;;;;;13.20;11.07;;;;;;;18.80;100.00;101838.28;5187503;28;20050;-70
2023/09/07 06:48:50;;;;;;;16.90;11.30;;;;;;;18.87;100.00;101841.28;5188084;28;20092;-70
2023/09/07 06:51:27;;;;;;;15.90;10.67;;;;;;;18.93;100.00;101843.47;5163659;28;20423;-73
2023/09/07 06:54:01;;;;;;;11.30;9.43;;;;;;;18.91;100.00;101834.78;5180916;28;20035;-71
2023/09/07 06:56:34;;;;;;;11.80;9.70;;;;;;;19.15;100.00;101846.25;5183695;28;20086;-72
2023/09/07 06:59:06;;;;;;;11.90;10.70;;;;;;;19.14;100.00;101836.56;5183243;28;20529;-71
2023/09/07 07:01:37;;;;;;;12.37;10.53;;;;;;;19.14;100.00;101844.53;5183364;28;20246;-71
2023/09/07 07:04:09;;;;;;;11.83;10.20;;;;;;;19.16;100.00;101842.63;5182049;28;20057;-72
2023/09/07 07:06:41;;;;;;;13.40;10.63;;;;;;;19.31;100.00;101841.38;5183211;28;20026;-71
2023/09/07 07:09:12;;;;;;;11.27;9.40;;;;;;;19.39;100.00;101846.03;5182625;28;20038;-71
2023/09/07 07:11:43;;;;;;;18.93;10.37;;;;;;;19.48;100.00;101847.09;5183956;28;20028;-71
2023/09/07 07:14:15;;;;;;;11.07;9.83;;;;;;;19.58;100.00;101834.72;5187319;28;20022;-73
2023/09/07 07:16:46;;;;;;;11.97;9.93;;;;;;;19.64;100.00;101851.13;5187245;28;20033;-70
2023/09/07 07:19:17;;;;;;;11.93;9.47;;;;;;;19.78;100.00;101842.84;5187544;28;20477;-71
2023/09/07 07:21:49;;;;;;;10.17;9.17;;;;;;;19.90;100.00;101846.28;5188982;28;20030;-71
2023/09/07 07:24:20;;;;;;;14.73;9.20;;;;;;;20.01;100.00;101847.19;5190160;28;20508;-71
2023/09/07 07:26:51;;;;;;;10.67;8.40;;;;;;;20.07;100.00;101839.56;5190304;28;20046;-71
2023/09/07 07:29:23;;;;;;;17.97;8.60;;;;;;;20.29;100.00;101848.41;5188819;28;20771;-72
2023/09/07 07:31:54;;;;;;;10.80;9.10;;;;;;;20.45;100.00;101848.88;5189382;28;20034;-72
2023/09/07 07:34:25;;;;;;;11.90;8.37;;;;;;;20.49;100.00;101851.13;5190124;28;20606;-72
2023/09/07 07:36:57;;;;;;;12.50;7.83;;;;;;;20.68;100.00;101846.88;5189669;28;20119;-71
2023/09/07 07:39:28;;;;;;;9.47;7.90;;;;;;;20.63;100.00;101831.31;5190208;28;20037;-72
2023/09/07 07:41:59;;;;;;;9.27;7.50;;;;;;;20.85;100.00;101855.19;5187932;28;20045;-71
2023/09/07 07:44:31;;;;;;;10.90;7.20;;;;;;;20.96;100.00;101846.28;5188665;28;20042;-72
2023/09/07 07:47:02;;;;;;;11.07;7.17;;;;;;;21.19;100.00;101849.53;5190267;28;20165;-71
2023/09/07 07:49:34;;;;;;;11.93;8.97;;;;;;;21.39;100.00;101858.41;5190051;28;20030;-71
2023/09/07 07:52:05;;;;;;;10.23;7.43;;;;;;;21.45;100.00;101846.34;5188539;28;20027;-70
2023/09/07 07:54:37;;;;;;;13.03;7.77;;;;;;;21.56;100.00;101833.84;5190167;28;20049;-71
2023/09/07 07:57:08;;;;;;;8.27;6.27;;;;;;;21.67;100.00;101844.38;5188314;28;20049;-72
2023/09/07 07:59:39;;;;;;;12.77;6.77;;;;;;;21.91;100.00;101835.13;5187558;28;20031;-72
2023/09/07 08:02:11;;;;;;;9.88;6.43;;;;;;;21.99;100.00;101832.56;5189755;28;20422;-71
2023/09/07 08:04:42;;;;;;;10.40;6.32;;;;;;;22.15;100.00;101823.13;5185486;28;20046;-72
2023/09/07 08:07:13;;;;;;;9.55;6.40;;;;;;;22.28;100.00;101830.81;5188215;28;20029;-72
2023/09/07 08:09:44;;;;;;;9.90;6.07;;;;;;;22.52;100.00;101828.59;5189559;28;20064;-72
2023/09/07 08:12:16;;;;;;;8.05;5.78;;;;;;;22.73;100.00;101833.72;5186607;28;20035;-71
2023/09/07 08:14:47;;;;;;;6.68;5.72;;;;;;;22.81;100.00;101827.66;5188792;28;20173;-71
2023/09/07 08:17:20;;;;;;;8.30;4.78;;;;;;;22.91;100.00;101833.78;5189461;28;20102;-71
2023/09/07 08:19:56;;;;;;;8.43;5.70;;;;;;;23.13;100.00;101828.97;5189522;28;20037;-71
2023/09/07 08:22:28;;;;;;;9.55;5.25;;;;;;;23.29;100.00;101833.66;5188974;28;20084;-71
2023/09/07 08:25:00;;;;;;;6.93;6.05;;;;;;;23.41;100.00;101820.94;5187325;28;20034;-71
2023/09/07 08:27:31;;;;;;;9.65;5.18;;;;;;;23.39;100.00;101795.31;5188440;28;20035;-72
2023/09/07 08:30:05;;;;;;;8.30;5.05;;;;;;;23.72;100.00;101818.84;5188662;28;20022;-72
2023/09/07 08:32:38;;;;;;;7.32;4.80;;;;;;;23.73;100.00;101807.97;5189527;28;20046;-72
2023/09/07 08:35:12;;;;;;;6.20;4.38;;;;;;;24.02;100.00;101805.97;5187316;28;20029;-72
2023/09/07 08:37:43;;;;;;;10.10;4.63;;;;;;;24.01;99.59;101798.94;5189456;28;20054;-72
2023/09/07 08:40:16;;;;;;;10.48;5.72;;;;;;;24.19;95.71;101806.09;5187404;28;20207;-72
2023/09/07 08:42:48;;;;;;;8.10;4.47;;;;;;;24.40;99.48;101803.84;5186376;28;20111;-73
2023/09/07 08:45:25;;;;;;;9.35;4.95;;;;;;;24.25;98.92;101803.63;5186830;28;20031;-71
2023/09/07 08:47:58;;;;;;;7.85;4.40;;;;;;;24.64;97.13;101807.63;5189256;28;20041;-70
2023/09/07 08:50:30;;;;;;;8.60;5.32;;;;;;;24.73;92.68;101808.47;5186795;28;20030;-72
2023/09/07 08:53:03;;;;;;;9.40;4.40;;;;;;;24.97;88.18;101806.06;5187522;28;20030;-72
2023/09/07 08:55:34;;;;;;;9.55;4.45;;;;;;;24.92;87.72;101803.88;5179678;28;20074;-73
2023/09/07 08:58:06;;;;;;;6.22;3.97;;;;;;;25.18;82.45;101794.88;5187560;28;20588;-73
2023/09/07 09:00:38;;;;;;;7.07;3.85;;;;;;;25.32;81.78;101806.78;5190446;28;20030;-73
2023/09/07 09:03:10;;;;;;;6.78;4.15;;;;;;;25.38;75.84;101789.16;5188564;28;20766;-72
2023/09/07 09:05:44;;;;;;;10.52;3.95;;;;;;;25.50;79.41;101792.34;5188970;28;20871;-72
2023/09/07 09:08:20;;;;;;;;;;;;;;;25.86;81.67;101801.88;5189206;28;20034;-72
2023/09/07 09:11:03;;;;;;;9.10;4.22;;;;;;;25.87;83.29;101800.84;5187845;28;20221;-71
2023/09/07 09:13:34;;;;;;;7.53;4.25;;;;;;;25.90;80.06;101803.22;5190293;28;20050;-74
2023/09/07 09:16:06;;;;;;;6.50;3.67;;;;;;;26.01;74.31;101799.31;5188671;28;20472;-73
2023/09/07 09:18:37;;;;;;;9.35;3.90;;;;;;;26.12;74.08;101800.81;5189967;28;20030;-74
2023/09/07 09:21:09;;;;;;;7.22;3.53;;;;;;;26.26;75.09;101799.25;5190157;28;20061;-73
2023/09/07 09:23:40;;;;;;;6.32;3.75;;;;;;;26.30;69.85;101797.91;5190388;28;20462;-75
2023/09/07 09:26:13;;;;;;;7.80;3.63;;;;;;;26.60;66.56;101801.81;5188421;28;20030;-73
2023/09/07 09:28:45;;;;;;;10.00;4.70;;;;;;;26.37;66.50;101798.06;5188879;28;20030;-73
2023/09/07 09:31:16;;;;;;;10.40;3.70;;;;;;;26.57;66.52;101801.16;5187679;28;20038;-74
2023/09/07 09:33:51;;;;;;;10.32;3.60;;;;;;;26.65;65.47;101802.94;5187580;28;20031;-73
2023/09/07 09:36:22;;;;;;;8.93;3.30;;;;;;;26.78;72.94;101799.69;5197374;28;20157;-73
2023/09/07 09:38:54;;;;;;;4.10;3.55;;;;;;;26.78;66.84;101788.94;5189724;28;20117;-73
2023/09/07 09:41:27;;;;;;;4.93;3.33;;;;;;;26.95;58.39;101788.81;5187886;28;20038;-72
2023/09/07 09:44:00;;;;;;;5.38;3.30;;;;;;;27.21;62.90;101787.66;5188344;28;20124;-70
2023/09/07 09:46:32;;;;;;;6.82;3.17;;;;;;;27.35;65.63;101794.06;5180914;28;20019;-73
2023/09/07 09:49:04;;;;;;;5.15;3.25;;;;;;;27.13;59.95;101793.09;5174339;28;20856;-72
2023/09/07 09:51:36;;;;;;;5.75;3.60;;;;;;;27.23;58.77;101790.16;5188640;28;20428;-72
2023/09/07 09:54:09;;;;;;;9.27;4.15;;;;;;;27.46;58.22;101791.97;5203965;28;20031;-73
2023/09/07 09:56:41;;;;;;;7.57;4.13;;;;;;;27.36;56.18;101793.09;5196763;28;20025;-73
2023/09/07 09:59:14;;;;;;;9.63;3.53;;;;;;;27.39;56.63;101781.09;5189045;28;20030;-71
2023/09/07 10:01:50;;;;;;;10.35;4.22;;;;;;;27.58;56.88;101792.38;5173200;28;20497;-72
2023/09/07 10:04:22;;;;;;;6.18;3.95;;;;;;;27.44;58.74;101778.69;5179259;28;20050;-73
2023/09/07 10:07:01;;;;;;;7.45;3.45;;;;;;;27.84;57.98;101780.38;5187758;28;20027;-73
2023/09/07 10:09:33;;;;;;;4.68;3.42;;;;;;;27.94;55.70;101783.63;5187681;28;20038;-74
2023/09/07 10:12:11;;;;;;;6.25;4.10;;;;;;;27.97;54.17;101780.56;5180476;28;20378;-74
2023/09/07 10:14:45;;;;;;;8.60;3.38;;;;;;;28.06;53.45;101775.06;5189035;28;20137;-74
2023/09/07 10:17:23;;;;;;;5.07;3.78;;;;;;;28.39;56.45;101772.00;5189501;28;20450;-74
2023/09/07 10:20:07;;;;;;;4.38;3.40;;;;;;;28.46;56.66;101767.50;5189654;28;20031;-74
2023/09/07 10:22:39;;;;;;;9.75;3.25;;;;;;;28.68;49.71;101777.50;5189249;28;20062;-74
2023/09/07 10:25:21;;;;;;;8.60;3.40;;;;;;;29.15;51.43;101774.44;5182720;28;20089;-75
2023/09/07 10:27:55;;;;;;;6.38;3.10;;;;;;;29.26;48.72;101767.66;5171840;28;20189;-73
2023/09/07 10:30:26;;;;;;;7.07;3.28;;;;;;;29.76;52.19;101769.50;5188774;28;20492;-74
2023/09/07 10:32:58;;;;;;;5.60;3.08;;;;;;;30.25;47.33;101767.66;5189247;28;20166;-74
2023/09/07 10:35:35;;;;;;;5.15;3.08;;;;;;;30.89;47.12;101770.13;5173076;28;20047;-74
2023/09/07 10:38:06;;;;;;;7.30;3.45;;;;;;;30.95;43.05;101757.63;5186216;28;20440;-73
2023/09/07 10:40:38;;;;;;;9.95;3.08;;;;;;;30.86;44.79;101762.41;5172528;28;20026;-72
2023/09/07 10:43:09;;;;;;;6.22;3.30;;;;;;;31.51;42.57;101760.13;5180707;28;20045;-73
2023/09/07 10:45:44;;;;;;;7.38;3.63;;;;;;;31.57;44.47;101762.00;5179937;28;20022;-73
2023/09/07 10:48:17;;;;;;;5.93;3.17;;;;;;;31.24;44.17;101744.75;5173997;28;20030;-74
2023/09/07 10:50:49;;;;;;;11.23;3.13;;;;;;;31.87;41.48;101756.06;5190586;28;20071;-73
2023/09/07 10:53:28;;;;;;;7.28;3.10;;;;;;;32.19;41.30;101758.06;5195139;28;20618;-74
2023/09/07 10:56:03;;;;;;;6.25;3.28;;;;;;;32.26;41.28;101758.00;5190481;28;20034;-74
2023/09/07 10:58:41;;;;;;;6.97;2.83;;;;;;;32.45;39.78;101745.41;5194170;28;20026;-74
2023/09/07 11:01:13;;;;;;;5.07;2.55;;;;;;;31.88;42.92;101752.31;5187338;28;20034;-74
2023/09/07 11:03:44;;;;;;;3.55;2.65;;;;;;;32.29;39.28;101744.03;5189870;28;20041;-74
2023/09/07 11:06:19;;;;;;;6.45;3.05;;;;;;;31.94;41.14;101733.56;5193549;28;20042;-74
2023/09/07 11:08:50;;;;;;;5.70;3.00;;;;;;;32.48;39.40;101733.31;5178405;28;20603;-73
2023/09/07 11:11:22;;;;;;;4.25;2.85;;;;;;;32.56;38.34;101743.91;5193318;28;20038;-74
2023/09/07 11:13:57;;;;;;;5.50;2.72;;;;;;;32.55;38.03;101742.25;5194468;28;20026;-74
2023/09/07 11:16:29;;;;;;;8.13;2.88;;;;;;;32.05;38.75;101741.03;5191208;28;20054;-74
2023/09/07 11:19:05;;;;;;;7.30;2.53;;;;;;;32.02;40.14;101741.47;5192101;28;20022;-75
2023/09/07 11:21:36;;;;;;;11.05;3.60;;;;;;;31.85;40.43;101736.50;5193735;28;20048;-75
2023/09/07 11:24:08;;;;;;;8.93;3.10;;;;;;;32.10;41.41;101743.91;5192085;28;20039;-75
2023/09/07 11:26:47;;;;;;;6.15;3.30;;;;;;;32.22;39.23;101735.94;5192736;28;20026;-75
2023/09/07 11:29:18;;;;;;;5.22;2.60;;;;;;;32.05;38.32;101741.03;5193846;28;20030;-75
2023/09/07 11:31:49;;;;;;;6.15;2.67;;;;;;;32.09;39.38;101720.59;5194096;28;20041;-75
2023/09/07 11:34:21;;;;;;;5.65;3.22;;;;;;;32.42;39.47;101732.28;5186143;28;20027;-75